Time;durP1;ratioP1;P1;durP2;ratioP2;P2;SDS_P1;SDS_P2;PMS_P1;PMS_P2;Temp;Humidity;BMP_temperature;BMP_pressure;BME280_temperature;BME280_humidity;BME280_pressure;Samples;Min_cycle;Max_cycle;Signal;HPM_P1;HPM_P2
2022/07/10 00:01:42;;;;;;;93.97;89.28;;;;;;;15.24;59.17;101082.09;5023618;28;20124;-74
2022/07/10 00:04:08;;;;;;;57.92;55.20;;;;;;;15.28;58.72;101082.03;5022872;28;20119;-73
2022/07/10 00:06:33;;;;;;;74.10;70.10;;;;;;;15.28;58.75;101078.50;5028742;28;20073;-73
2022/07/10 00:08:59;;;;;;;59.50;56.42;;;;;;;15.22;58.75;101074.19;5004001;28;20041;-73
2022/07/10 00:11:24;;;;;;;48.05;45.75;;;;;;;15.20;59.08;101075.97;5022933;28;20099;-73
2022/07/10 00:13:49;;;;;;;47.60;44.97;;;;;;;15.20;59.12;101086.59;5024509;28;20112;-73
2022/07/10 00:16:15;;;;;;;57.15;54.30;;;;;;;15.17;58.86;101089.31;5025687;28;20041;-73
2022/07/10 00:18:40;;;;;;;47.63;45.05;;;;;;;15.06;59.37;101093.91;5024891;28;20045;-73
2022/07/10 00:21:06;;;;;;;58.63;55.45;;;;;;;15.00;59.39;101096.69;5027802;28;20040;-73
2022/07/10 00:23:31;;;;;;;45.55;43.15;;;;;;;14.93;59.60;101103.84;5021920;28;20046;-73
2022/07/10 00:25:56;;;;;;;43.30;40.72;;;;;;;14.80;59.93;101089.00;5021909;28;20073;-73
2022/07/10 00:28:23;;;;;;;42.53;40.22;;;;;;;14.73;60.10;101095.31;5024169;28;20124;-73
2022/07/10 00:30:48;;;;;;;45.90;43.50;;;;;;;14.60;60.54;101094.59;5025086;28;20033;-73
2022/07/10 00:33:13;;;;;;;43.28;40.83;;;;;;;14.47;60.70;101089.41;5016350;28;20033;-73
2022/07/10 00:35:39;;;;;;;41.03;38.38;;;;;;;14.39;61.65;101088.66;5022219;28;20045;-73
2022/07/10 00:38:04;;;;;;;57.15;54.15;;;;;;;14.23;61.82;101081.78;5025218;28;20052;-73
2022/07/10 00:40:29;;;;;;;47.78;45.03;;;;;;;14.18;61.97;101091.56;5028304;28;20060;-73
2022/07/10 00:42:55;;;;;;;54.47;51.67;;;;;;;14.12;62.73;101086.31;5024399;28;20041;-74
2022/07/10 00:45:20;;;;;;;54.88;52.22;;;;;;;14.13;62.32;101083.66;5023709;28;20052;-73
2022/07/10 00:47:45;;;;;;;47.42;44.97;;;;;;;14.18;62.13;101080.97;5001934;28;20038;-73
2022/07/10 00:50:12;;;;;;;55.70;52.65;;;;;;;14.21;62.26;101072.94;5023526;28;20064;-73
2022/07/10 00:52:38;;;;;;;47.80;45.20;;;;;;;14.27;62.04;101080.81;5020896;28;20037;-73
2022/07/10 00:55:05;;;;;;;45.35;42.95;;;;;;;14.35;61.47;101089.56;5020637;28;20543;-73
2022/07/10 00:57:31;;;;;;;56.08;53.10;;;;;;;14.32;61.95;101081.66;5023720;28;20068;-73
2022/07/10 00:59:57;;;;;;;44.90;42.58;;;;;;;14.40;61.65;101078.91;5022437;28;20073;-73
2022/07/10 01:02:23;;;;;;;47.67;44.90;;;;;;;14.43;60.92;101086.81;5021704;28;20091;-73
2022/07/10 01:04:48;;;;;;;53.03;50.35;;;;;;;14.41;60.47;101084.19;5023731;28;20495;-73
2022/07/10 01:07:15;;;;;;;60.92;57.50;;;;;;;14.48;60.45;101080.53;5020892;28;20041;-73
2022/07/10 01:09:41;;;;;;;57.67;54.58;;;;;;;14.51;60.08;101079.63;5020815;28;20037;-73
2022/07/10 01:12:08;;;;;;;60.90;57.67;;;;;;;14.56;59.93;101088.44;5022795;28;20041;-73
2022/07/10 01:14:35;;;;;;;70.07;66.68;;;;;;;14.59;59.99;101092.84;5022497;28;20042;-73
2022/07/10 01:17:01;;;;;;;68.68;65.15;;;;;;;14.56;59.37;101080.47;5021529;28;20045;-73
2022/07/10 01:19:27;;;;;;;72.95;69.47;;;;;;;14.58;59.71;101076.03;5023645;28;20033;-73
2022/07/10 01:21:52;;;;;;;76.70;72.90;;;;;;;14.66;59.25;101086.53;5020047;28;20034;-73
2022/07/10 01:24:18;;;;;;;84.25;80.35;;;;;;;14.61;60.01;101083.06;5020430;28;20044;-73
2022/07/10 01:26:44;;;;;;;91.53;87.05;;;;;;;14.61;59.93;101078.63;5023030;28;20056;-73
2022/07/10 01:29:11;;;;;;;90.60;86.40;;;;;;;14.64;59.88;101077.72;5022028;28;20042;-73
2022/07/10 01:31:37;;;;;;;95.90;91.30;;;;;;;14.66;59.96;101073.25;5019465;28;20034;-73
2022/07/10 01:34:06;;;;;;;103.82;98.53;;;;;;;14.73;59.94;101079.38;5023659;28;20084;-72
2022/07/10 01:36:31;;;;;;;87.35;82.95;;;;;;;14.73;59.64;101071.41;5020700;28;20042;-73
2022/07/10 01:38:58;;;;;;;89.88;85.65;;;;;;;14.71;59.64;101074.06;5022308;28;20104;-73
2022/07/10 01:41:25;;;;;;;83.25;79.18;;;;;;;14.63;59.95;101070.66;5021600;28;20129;-73
2022/07/10 01:43:50;;;;;;;81.43;77.57;;;;;;;14.58;59.57;101075.16;5021159;28;20366;-73
2022/07/10 01:46:16;;;;;;;79.53;75.10;;;;;;;14.55;59.56;101069.88;5023395;28;20075;-72
2022/07/10 01:48:42;;;;;;;82.53;78.72;;;;;;;14.55;59.35;101064.56;5019736;28;20056;-73
2022/07/10 01:51:10;;;;;;;81.28;77.15;;;;;;;14.54;59.34;101060.13;5022612;28;20131;-73
2022/07/10 01:53:36;;;;;;;83.10;79.07;;;;;;;14.56;59.40;101058.34;5019445;28;20101;-73
2022/07/10 01:56:05;;;;;;;80.78;76.80;;;;;;;14.58;59.22;101054.78;5022062;28;20049;-73
2022/07/10 01:58:30;;;;;;;74.53;70.13;;;;;;;14.49;59.53;101049.56;5020083;28;20033;-73
2022/07/10 02:00:56;;;;;;;73.82;69.90;;;;;;;14.53;59.42;101051.31;5022628;28;20400;-73
2022/07/10 02:06:05;;;;;;;82.53;78.63;;;;;;;14.56;59.54;101061.00;5019918;28;20033;-73
2022/07/10 02:08:31;;;;;;;80.35;76.10;;;;;;;14.55;59.39;101062.78;5026597;28;20371;-72
2022/07/10 02:10:56;;;;;;;68.03;64.40;;;;;;;14.54;59.84;101060.13;5021321;28;20120;-73
2022/07/10 02:13:24;;;;;;;68.68;65.45;;;;;;;14.59;59.23;101059.19;5017012;28;20073;-73
2022/07/10 02:15:50;;;;;;;72.60;68.82;;;;;;;14.57;59.52;101046.84;5022282;28;20034;-73
2022/07/10 02:18:15;;;;;;;67.30;63.63;;;;;;;14.57;59.66;101052.16;5019797;28;20034;-73
2022/07/10 02:20:40;;;;;;;70.70;66.80;;;;;;;14.51;60.04;101049.53;5023093;28;20034;-72
2022/07/10 02:23:06;;;;;;;70.63;66.82;;;;;;;14.50;60.16;101042.47;5019590;28;20136;-73
2022/07/10 02:25:32;;;;;;;76.82;72.70;;;;;;;14.51;60.06;101046.88;5018710;28;20034;-72
2022/07/10 02:27:58;;;;;;;76.88;72.85;;;;;;;14.47;60.37;101040.75;5026351;28;20033;-73
2022/07/10 02:30:23;;;;;;;65.57;62.08;;;;;;;14.46;60.29;101039.88;5020554;28;20037;-73
2022/07/10 02:32:48;;;;;;;68.60;65.05;;;;;;;14.47;60.29;101041.63;5004321;28;20045;-73
2022/07/10 02:35:14;;;;;;;57.97;55.10;;;;;;;14.48;59.99;101032.72;5027560;28;20120;-73
2022/07/10 02:37:39;;;;;;;60.28;57.17;;;;;;;14.53;59.93;101038.03;5020834;28;20077;-73
2022/07/10 02:40:05;;;;;;;70.15;66.32;;;;;;;14.52;59.71;101040.69;5021830;28;20037;-74
2022/07/10 02:42:30;;;;;;;68.18;64.50;;;;;;;14.55;59.92;101048.63;5020483;28;20096;-73
2022/07/10 02:44:55;;;;;;;63.38;60.28;;;;;;;14.55;60.25;101038.88;5020742;28;20037;-73
2022/07/10 02:47:21;;;;;;;66.32;62.78;;;;;;;14.55;60.25;101044.19;5021969;28;20045;-73
2022/07/10 02:49:46;;;;;;;71.88;68.05;;;;;;;14.57;60.47;101037.09;5019473;28;20042;-73
2022/07/10 02:52:11;;;;;;;79.45;75.30;;;;;;;14.53;60.69;101046.00;5022154;28;20108;-73
2022/07/10 02:54:37;;;;;;;78.80;75.10;;;;;;;14.51;60.68;101036.25;5018520;28;20041;-73
2022/07/10 02:57:03;;;;;;;76.75;72.82;;;;;;;14.53;60.57;101045.13;5020390;28;20041;-73
2022/07/10 02:59:29;;;;;;;72.88;68.75;;;;;;;14.56;60.49;101040.63;5018977;28;20040;-73
2022/07/10 03:01:54;;;;;;;69.80;66.43;;;;;;;14.52;60.74;101043.34;5025274;28;20113;-73
2022/07/10 03:04:20;;;;;;;68.28;64.18;;;;;;;14.51;60.83;101033.59;5026913;28;20087;-73
2022/07/10 03:06:45;;;;;;;73.13;69.57;;;;;;;14.48;60.98;101037.16;5027095;28;20033;-73
2022/07/10 03:09:10;;;;;;;57.35;54.42;;;;;;;14.48;61.08;101030.06;5012822;28;20037;-73
2022/07/10 03:11:35;;;;;;;314.77;299.35;;;;;;;14.46;61.50;101026.59;5028596;28;20095;-73
2022/07/10 03:14:01;;;;;;;55.80;52.55;;;;;;;14.37;61.59;101033.78;5029662;28;20021;-73
2022/07/10 03:16:26;;;;;;;53.15;50.15;;;;;;;14.44;61.44;101028.38;5025664;28;20400;-73
2022/07/10 03:18:51;;;;;;;52.40;49.65;;;;;;;14.41;61.50;101033.75;5025406;28;20463;-73
2022/07/10 03:21:17;;;;;;;51.10;48.65;;;;;;;14.42;61.56;101038.16;5022517;28;20501;-74
2022/07/10 03:23:42;;;;;;;71.65;67.70;;;;;;;14.47;61.71;101031.00;5023112;28;20033;-73
2022/07/10 03:26:08;;;;;;;50.15;47.17;;;;;;;14.47;61.45;101033.66;5026305;28;20045;-74
2022/07/10 03:28:33;;;;;;;46.75;44.00;;;;;;;14.52;61.49;101030.06;5031049;28;20025;-73
2022/07/10 03:30:59;;;;;;;31.38;29.52;;;;;;;14.52;61.49;101032.72;5029310;28;20041;-73
2022/07/10 03:33:24;;;;;;;37.70;35.80;;;;;;;14.55;61.35;101032.69;5025096;28;20034;-73
2022/07/10 03:35:49;;;;;;;37.63;35.38;;;;;;;14.54;61.19;101028.25;5020895;28;20481;-73
2022/07/10 03:38:15;;;;;;;66.85;63.60;;;;;;;14.54;61.40;101036.25;5025686;28;20459;-73
2022/07/10 03:40:40;;;;;;;56.25;53.28;;;;;;;14.55;61.63;101024.72;5022698;28;20121;-73
2022/07/10 03:43:05;;;;;;;54.97;51.88;;;;;;;14.47;61.37;101046.94;5024182;28;20041;-73
2022/07/10 03:45:31;;;;;;;59.38;56.40;;;;;;;14.39;61.93;101032.00;5023580;28;20030;-73
2022/07/10 03:47:56;;;;;;;93.43;88.57;;;;;;;14.26;62.37;101041.91;5023815;28;20044;-73
2022/07/10 03:50:21;;;;;;;330.80;314.65;;;;;;;14.15;62.55;101038.53;5024987;28;20041;-73
2022/07/10 03:52:46;;;;;;;71.45;68.03;;;;;;;14.11;63.20;101034.13;5022035;28;20044;-72
2022/07/10 03:55:12;;;;;;;72.20;68.68;;;;;;;14.07;64.54;101035.06;5025443;28;20064;-73
2022/07/10 03:57:57;;;;;;;25.00;23.45;;;;;;;13.82;66.42;101032.72;5022508;28;20084;-73
2022/07/10 04:00:24;;;;;;;43.95;41.75;;;;;;;13.63;67.37;101025.88;5026437;28;20037;-74
2022/07/10 04:03:05;;;;;;;18.98;17.70;;;;;;;13.59;67.43;101033.84;5027085;28;20038;-73
2022/07/10 04:05:30;;;;;;;16.65;15.73;;;;;;;13.64;67.23;101031.13;5032734;28;20026;-74
2022/07/10 04:07:57;;;;;;;41.13;38.75;;;;;;;13.77;66.38;101029.25;5020954;28;20408;-74
2022/07/10 04:10:23;;;;;;;23.42;21.95;;;;;;;13.87;66.45;101019.41;5024728;28;20400;-73
2022/07/10 04:12:48;;;;;;;43.25;41.10;;;;;;;13.93;66.39;101022.84;5024638;28;20044;-73
2022/07/10 04:15:14;;;;;;;18.33;17.10;;;;;;;14.09;66.71;101020.88;5028098;28;20045;-74
2022/07/10 04:17:40;;;;;;;25.52;24.02;;;;;;;14.17;65.49;101015.47;5022501;28;20033;-74
2022/07/10 04:20:06;;;;;;;22.40;21.20;;;;;;;14.27;65.40;101017.09;5025060;28;20041;-73
2022/07/10 04:22:32;;;;;;;21.95;20.77;;;;;;;14.29;64.73;101007.34;5021070;28;20038;-73
2022/07/10 04:24:57;;;;;;;24.88;23.55;;;;;;;14.28;64.94;101012.66;5024418;28;20047;-73
2022/07/10 04:27:22;;;;;;;25.33;24.00;;;;;;;14.40;64.70;101012.50;5022896;28;20041;-74
2022/07/10 04:29:48;;;;;;;20.75;19.63;;;;;;;14.36;64.38;101011.69;5022902;28;20033;-73
2022/07/10 04:32:15;;;;;;;18.15;17.25;;;;;;;14.42;64.53;101008.94;5023853;28;20031;-74
2022/07/10 04:34:41;;;;;;;33.67;32.03;;;;;;;14.47;64.04;100999.13;5020259;28;20128;-74
2022/07/10 04:37:07;;;;;;;41.97;40.08;;;;;;;14.48;64.02;101010.63;5021506;28;20133;-73
2022/07/10 04:39:33;;;;;;;37.95;36.05;;;;;;;14.60;63.73;101004.28;5024080;28;20045;-73
2022/07/10 04:41:59;;;;;;;33.22;31.60;;;;;;;14.69;62.67;101005.00;5022380;28;20038;-73
2022/07/10 04:44:24;;;;;;;46.33;44.13;;;;;;;14.70;62.84;101005.91;5022845;28;20057;-73
2022/07/10 04:46:50;;;;;;;37.35;35.58;;;;;;;14.77;62.41;101002.22;5024339;28;20132;-73
2022/07/10 04:49:15;;;;;;;41.30;39.30;;;;;;;14.57;62.79;101007.00;5030823;28;20029;-73
2022/07/10 04:51:41;;;;;;;33.60;32.05;;;;;;;14.46;63.43;101008.00;5020570;28;20040;-73
2022/07/10 04:54:06;;;;;;;29.60;28.17;;;;;;;14.52;63.58;101007.03;5008199;28;20033;-73
2022/07/10 04:56:31;;;;;;;33.42;31.73;;;;;;;14.42;63.81;101003.63;5028810;28;20536;-72
2022/07/10 04:58:57;;;;;;;33.45;31.63;;;;;;;14.41;64.20;101003.66;5022754;28;20393;-73
2022/07/10 05:01:22;;;;;;;34.08;31.77;;;;;;;14.43;64.24;101008.03;5020153;28;20029;-73
2022/07/10 05:03:47;;;;;;;34.97;33.38;;;;;;;14.45;64.07;101006.22;5023958;28;20384;-74
2022/07/10 05:06:13;;;;;;;35.33;33.47;;;;;;;14.41;64.60;101006.31;5020981;28;20608;-73
2022/07/10 05:08:38;;;;;;;33.70;31.80;;;;;;;14.50;64.60;101013.25;5006083;28;20037;-74
2022/07/10 05:11:04;;;;;;;33.45;31.88;;;;;;;14.51;65.39;101013.22;5021142;28;20030;-73
2022/07/10 05:13:30;;;;;;;35.78;33.13;;;;;;;14.60;64.22;101015.78;5022795;28;20492;-74
2022/07/10 05:15:55;;;;;;;38.28;36.40;;;;;;;14.66;64.39;101009.50;5022631;28;20073;-73
2022/07/10 05:18:21;;;;;;;31.75;30.25;;;;;;;14.69;64.07;101004.13;5003464;28;20038;-74
2022/07/10 05:20:49;;;;;;;33.15;31.55;;;;;;;14.63;64.61;101023.72;5024037;28;20091;-73
2022/07/10 05:23:15;;;;;;;37.97;35.92;;;;;;;14.64;64.59;101001.53;5020003;28;20034;-73
2022/07/10 05:25:40;;;;;;;30.33;28.92;;;;;;;14.79;63.87;101003.09;5022811;28;20037;-73
2022/07/10 05:28:06;;;;;;;32.40;30.85;;;;;;;14.83;64.05;101003.94;5021996;28;20044;-73
2022/07/10 05:30:32;;;;;;;32.90;31.10;;;;;;;14.89;63.62;101011.81;5027204;28;20033;-73
2022/07/10 05:32:58;;;;;;;29.13;27.63;;;;;;;14.96;63.17;101004.59;5023209;28;20037;-73
2022/07/10 05:35:23;;;;;;;25.63;24.08;;;;;;;15.03;63.09;101003.59;5020453;28;20036;-73
2022/07/10 05:37:49;;;;;;;23.75;22.65;;;;;;;15.01;62.82;101006.28;5024813;28;20037;-73
2022/07/10 05:40:14;;;;;;;24.05;22.95;;;;;;;15.07;63.00;101005.31;5025948;28;20512;-73
2022/07/10 05:42:40;;;;;;;26.73;25.27;;;;;;;15.15;62.91;100998.06;5022015;28;20048;-73
2022/07/10 05:45:06;;;;;;;26.40;25.10;;;;;;;15.17;62.16;100998.94;4996710;28;20041;-73
2022/07/10 05:47:33;;;;;;;29.83;27.90;;;;;;;15.15;63.16;101000.72;5024192;28;20041;-73
2022/07/10 05:49:59;;;;;;;28.73;27.40;;;;;;;15.36;62.38;100995.94;5023485;28;20069;-74
2022/07/10 05:52:24;;;;;;;31.00;29.50;;;;;;;15.33;61.32;100992.41;5019993;28;20121;-74
2022/07/10 05:54:50;;;;;;;34.10;32.47;;;;;;;15.26;60.84;100998.75;5028196;28;20412;-74
2022/07/10 05:57:16;;;;;;;35.53;33.83;;;;;;;15.25;61.42;100988.16;5022188;28;20064;-73
2022/07/10 05:59:41;;;;;;;28.25;26.85;;;;;;;15.40;61.05;100987.84;5022871;28;20408;-73
2022/07/10 06:02:06;;;;;;;25.58;24.33;;;;;;;15.51;61.17;100990.31;5022657;28;20510;-73
2022/07/10 06:04:32;;;;;;;17.27;16.35;;;;;;;15.49;62.07;100993.00;5026987;28;20036;-72
2022/07/10 06:06:57;;;;;;;16.08;15.25;;;;;;;15.64;61.66;101002.50;5026827;28;20029;-72
2022/07/10 06:09:22;;;;;;;17.95;17.05;;;;;;;15.56;61.90;100993.75;5018714;28;20045;-72
2022/07/10 06:11:49;;;;;;;18.55;17.45;;;;;;;15.69;61.77;101000.66;5024481;28;20041;-72
2022/07/10 06:14:14;;;;;;;15.32;14.52;;;;;;;15.86;61.04;101002.97;5020865;28;20420;-72
2022/07/10 06:16:40;;;;;;;13.60;12.38;;;;;;;15.90;60.50;101003.75;5024977;28;20026;-72
2022/07/10 06:19:05;;;;;;;14.77;13.98;;;;;;;15.68;61.70;101009.50;5023589;28;20102;-72
2022/07/10 06:21:31;;;;;;;11.40;10.52;;;;;;;15.72;60.20;101003.25;5019473;28;20424;-72
2022/07/10 06:23:56;;;;;;;14.10;13.10;;;;;;;15.71;60.43;101006.78;5022778;28;20029;-72
2022/07/10 06:26:21;;;;;;;14.23;13.43;;;;;;;15.82;59.90;101005.69;5021148;28;20099;-72
2022/07/10 06:28:47;;;;;;;15.63;14.73;;;;;;;15.92;60.05;101021.44;5004095;28;20078;-72
2022/07/10 06:31:12;;;;;;;16.23;15.20;;;;;;;16.06;59.37;101005.22;5020803;28;20033;-73
2022/07/10 06:33:38;;;;;;;17.08;16.27;;;;;;;16.16;59.10;101011.19;5021296;28;20420;-73
2022/07/10 06:36:05;;;;;;;17.60;16.60;;;;;;;16.16;58.46;101000.53;5024547;28;20038;-72
2022/07/10 06:38:30;;;;;;;16.85;15.98;;;;;;;16.29;58.71;101009.16;5022749;28;20037;-72
2022/07/10 06:40:55;;;;;;;17.08;16.23;;;;;;;16.29;58.92;101022.47;5018915;28;20045;-73
2022/07/10 06:43:21;;;;;;;17.45;16.27;;;;;;;16.26;57.52;101014.53;5021277;28;20132;-72
2022/07/10 06:45:47;;;;;;;18.92;17.48;;;;;;;16.32;58.99;101004.66;5000688;28;20041;-72
2022/07/10 06:48:14;;;;;;;17.40;16.40;;;;;;;16.34;58.58;101004.59;5025868;28;20061;-73
2022/07/10 06:50:40;;;;;;;14.30;13.60;;;;;;;16.18;58.08;100999.59;5028270;28;20040;-73
2022/07/10 06:53:05;;;;;;;16.02;15.23;;;;;;;16.05;58.09;100998.13;5028400;28;20034;-73
2022/07/10 06:55:32;;;;;;;18.92;18.02;;;;;;;16.04;58.80;101000.84;5028546;28;20038;-73
2022/07/10 06:57:58;;;;;;;19.45;18.25;;;;;;;16.40;58.50;101000.03;5027202;28;20029;-73
2022/07/10 07:00:24;;;;;;;18.60;17.58;;;;;;;16.75;55.79;101008.09;5029058;28;20679;-72
2022/07/10 07:02:50;;;;;;;14.75;13.85;;;;;;;16.76;55.86;101001.84;5027905;28;20033;-72
2022/07/10 07:05:15;;;;;;;15.13;14.07;;;;;;;16.54;56.67;100989.03;5028147;28;20034;-72
2022/07/10 07:07:41;;;;;;;15.73;14.85;;;;;;;16.56;56.48;100994.34;5026588;28;20084;-72
2022/07/10 07:10:09;;;;;;;13.30;12.60;;;;;;;16.60;55.55;100986.22;5022530;28;20095;-73
2022/07/10 07:12:34;;;;;;;15.27;14.50;;;;;;;16.83;54.87;100996.38;5022458;28;20116;-73
2022/07/10 07:14:59;;;;;;;14.65;13.95;;;;;;;16.79;54.40;100991.13;5021490;28;20033;-73
2022/07/10 07:17:33;;;;;;;16.77;15.98;;;;;;;17.07;53.53;101007.31;5021806;28;20048;-73
2022/07/10 07:25:26;;;;;;;16.73;15.90;;;;;;;16.79;53.60;101007.13;5028732;28;20056;-73
2022/07/10 07:27:52;;;;;;;15.98;14.77;;;;;;;16.57;52.70;100996.94;5028567;28;20029;-72
2022/07/10 07:30:17;;;;;;;13.38;12.68;;;;;;;16.61;53.15;100997.75;5028081;28;20032;-73
2022/07/10 07:32:45;;;;;;;15.40;14.60;;;;;;;16.71;53.12;101001.94;5027400;28;20036;-73
2022/07/10 07:35:11;;;;;;;16.13;15.25;;;;;;;16.90;53.12;101005.09;5025465;28;20038;-73
2022/07/10 07:37:42;;;;;;;19.52;18.42;;;;;;;17.10;52.39;100999.25;5024953;28;20475;-73
2022/07/10 07:40:16;;;;;;;13.57;12.80;;;;;;;17.18;53.23;101009.72;5027241;28;20480;-73
2022/07/10 07:42:41;;;;;;;18.83;17.90;;;;;;;17.30;52.51;100998.72;5024345;28;20034;-73
2022/07/10 07:45:08;;;;;;;21.55;20.45;;;;;;;17.20;52.72;100998.09;5020376;28;20036;-72
2022/07/10 07:48:03;;;;;;;20.17;18.98;;;;;;;17.00;52.88;100997.72;5029440;28;20025;-73
2022/07/10 07:50:31;;;;;;;18.85;17.85;;;;;;;17.03;53.19;100993.22;5006101;28;20061;-73
2022/07/10 07:52:58;;;;;;;18.35;17.15;;;;;;;16.82;53.57;101004.38;5031248;28;20076;-72
2022/07/10 07:55:24;;;;;;;16.92;16.13;;;;;;;16.70;53.64;101002.88;5031531;28;20040;-72
2022/07/10 07:57:53;;;;;;;17.33;16.33;;;;;;;16.53;54.30;101005.03;5031124;28;20037;-73
2022/07/10 08:00:24;;;;;;;17.45;16.63;;;;;;;16.38;54.75;101003.63;5025694;28;20057;-72
2022/07/10 08:02:51;;;;;;;16.13;15.30;;;;;;;16.33;55.44;101000.19;5020833;28;20121;-73
2022/07/10 08:05:17;;;;;;;15.25;14.35;;;;;;;16.39;55.12;101008.91;5028688;28;20045;-73
2022/07/10 08:07:47;;;;;;;15.02;14.23;;;;;;;16.44;54.83;101006.16;5029688;28;20112;-73
2022/07/10 08:10:15;;;;;;;15.90;14.95;;;;;;;16.59;54.20;101004.94;5027384;28;20447;-73
2022/07/10 08:12:41;;;;;;;15.30;14.50;;;;;;;16.68;54.10;100998.50;5011187;28;20037;-73
2022/07/10 08:15:08;;;;;;;18.80;17.90;;;;;;;17.08;53.20;100999.31;5027120;28;20029;-73
2022/07/10 08:17:34;;;;;;;17.27;15.88;;;;;;;17.09;52.61;100995.72;5024068;28;20044;-72
2022/07/10 08:19:59;;;;;;;13.88;13.10;;;;;;;17.00;52.94;101000.38;5020392;28;20037;-73
2022/07/10 08:22:24;;;;;;;15.55;14.35;;;;;;;16.93;53.04;101009.47;5027057;28;20597;-73
2022/07/10 08:24:49;;;;;;;13.38;12.57;;;;;;;17.08;52.10;101004.63;5028653;28;20558;-73
2022/07/10 08:27:15;;;;;;;15.07;14.07;;;;;;;17.22;51.93;100998.06;5018230;28;20076;-73
2022/07/10 08:29:41;;;;;;;17.65;16.70;;;;;;;16.85;52.07;100994.53;5023652;28;20044;-73
2022/07/10 08:32:07;;;;;;;18.40;17.45;;;;;;;16.87;52.41;100997.16;5025083;28;20112;-73
2022/07/10 08:34:33;;;;;;;21.50;20.45;;;;;;;16.90;52.80;100986.44;5018632;28;20038;-73
2022/07/10 08:36:58;;;;;;;23.65;22.35;;;;;;;16.79;52.45;101001.78;5024206;28;20084;-73
2022/07/10 08:39:24;;;;;;;21.20;20.20;;;;;;;16.64;53.30;100985.25;5023288;28;20037;-73
2022/07/10 08:41:50;;;;;;;22.95;21.67;;;;;;;16.60;53.50;100996.88;5016585;28;20485;-72
2022/07/10 08:44:18;;;;;;;19.92;18.50;;;;;;;16.51;53.82;100986.44;5021826;28;20038;-73
2022/07/10 08:46:45;;;;;;;15.93;15.13;;;;;;;16.63;53.83;100991.47;5024904;28;20800;-73
2022/07/10 08:49:11;;;;;;;18.48;17.48;;;;;;;16.71;53.54;100987.75;5025346;28;20407;-74
2022/07/10 08:52:02;;;;;;;16.27;15.38;;;;;;;16.89;52.54;100995.31;5018648;28;20488;-73
2022/07/10 08:54:28;;;;;;;16.30;15.13;;;;;;;16.84;52.16;100998.09;5027747;28;20057;-73
2022/07/10 08:56:56;;;;;;;18.40;17.20;;;;;;;16.86;51.90;100998.94;5027740;28;20037;-74
2022/07/10 08:59:22;;;;;;;18.10;16.98;;;;;;;16.79;52.14;101007.13;5021582;28;20041;-73
2022/07/10 09:01:49;;;;;;;17.23;16.08;;;;;;;16.86;51.80;100993.63;5028930;28;20041;-73
2022/07/10 09:04:18;;;;;;;18.55;17.20;;;;;;;17.03;51.96;101001.22;5029446;28;20032;-73
2022/07/10 09:06:44;;;;;;;27.77;26.38;;;;;;;17.20;51.42;100990.09;5021685;28;20064;-74
2022/07/10 09:09:11;;;;;;;20.60;19.52;;;;;;;17.52;50.49;101002.56;5022341;28;20112;-74
2022/07/10 09:11:40;;;;;;;14.98;13.40;;;;;;;17.78;49.22;101006.31;5022320;28;20042;-73
2022/07/10 09:14:11;;;;;;;17.65;16.75;;;;;;;17.99;49.81;100993.28;5020554;28;20096;-73
2022/07/10 09:16:39;;;;;;;12.43;11.52;;;;;;;18.04;48.28;100994.03;4992829;28;20111;-73
2022/07/10 09:19:22;;;;;;;13.80;12.55;;;;;;;18.13;48.51;100991.97;5026592;28;20100;-73
2022/07/10 09:21:59;;;;;;;15.15;14.15;;;;;;;18.11;48.37;100976.91;5020828;28;20041;-73
2022/07/10 09:24:25;;;;;;;14.93;13.93;;;;;;;18.02;48.11;100982.50;5020420;28;20068;-73
2022/07/10 09:26:56;;;;;;;16.45;15.65;;;;;;;17.95;48.35;100985.38;5002728;28;20489;-73
2022/07/10 09:29:21;;;;;;;17.00;16.08;;;;;;;17.99;48.97;100985.28;5022881;28;20045;-73
2022/07/10 09:31:51;;;;;;;16.33;15.32;;;;;;;17.79;48.72;101001.81;5023604;28;20034;-73
2022/07/10 09:34:17;;;;;;;18.05;16.85;;;;;;;17.56;49.97;100983.81;5023054;28;20090;-73
2022/07/10 09:36:43;;;;;;;16.25;15.40;;;;;;;17.56;49.61;100999.84;5019815;28;20056;-73
2022/07/10 09:39:08;;;;;;;15.40;14.43;;;;;;;17.44;49.36;100996.56;5022621;28;20484;-73
2022/07/10 09:41:34;;;;;;;16.15;15.25;;;;;;;17.46;50.04;101010.75;5020146;28;20112;-73
2022/07/10 09:44:02;;;;;;;17.60;16.35;;;;;;;17.65;50.00;101003.09;5025824;28;20514;-73
2022/07/10 09:46:31;;;;;;;18.75;17.75;;;;;;;17.80;48.91;101015.19;5024281;28;20033;-73
2022/07/10 09:49:15;;;;;;;18.63;17.42;;;;;;;17.83;49.22;100996.41;5018808;28;20033;-74
2022/07/10 09:51:42;;;;;;;17.75;16.70;;;;;;;18.25;49.39;100993.38;5025806;28;20403;-73
2022/07/10 09:54:09;;;;;;;19.73;18.45;;;;;;;18.66;47.47;100993.88;5025859;28;20033;-73
2022/07/10 09:56:42;;;;;;;12.13;11.43;;;;;;;18.46;47.19;100997.19;5028886;28;20063;-74
2022/07/10 09:59:11;;;;;;;21.52;20.02;;;;;;;18.31;48.57;100990.53;5026381;28;20099;-73
2022/07/10 10:01:37;;;;;;;18.92;17.92;;;;;;;18.27;48.60;100999.56;5026484;28;20080;-74
2022/07/10 10:04:04;;;;;;;14.10;12.93;;;;;;;17.87;48.61;101015.91;5025421;28;20033;-74
2022/07/10 10:06:31;;;;;;;15.73;14.70;;;;;;;17.57;49.45;101007.78;5025068;28;20053;-73
2022/07/10 10:09:02;;;;;;;12.45;11.57;;;;;;;17.24;49.30;101028.25;5022834;28;20044;-73
2022/07/10 10:11:31;;;;;;;17.50;16.60;;;;;;;16.94;49.52;101009.41;5022311;28;20120;-73
2022/07/10 10:13:58;;;;;;;17.30;16.30;;;;;;;16.81;49.89;101005.31;5020185;28;20107;-74
2022/07/10 10:16:25;;;;;;;19.92;18.88;;;;;;;16.81;50.31;101021.31;5021078;28;20519;-73
2022/07/10 10:21:36;;;;;;;22.08;20.98;;;;;;;17.11;50.48;101018.78;5020333;28;20731;-74
2022/07/10 10:24:03;;;;;;;17.83;16.75;;;;;;;17.53;49.14;101003.47;5020516;28;20504;-73
2022/07/10 10:26:28;;;;;;;20.25;18.17;;;;;;;17.60;48.31;101012.16;5021212;28;20038;-73
2022/07/10 10:28:57;;;;;;;22.42;20.83;;;;;;;17.73;48.95;101006.41;5027336;28;20079;-74
2022/07/10 10:31:23;;;;;;;16.92;16.10;;;;;;;18.07;47.81;100997.47;5023079;28;20050;-74
2022/07/10 10:33:51;;;;;;;13.50;12.80;;;;;;;18.26;47.03;101005.84;5020910;28;20080;-73
2022/07/10 10:36:36;;;;;;;16.83;15.73;;;;;;;18.38;47.33;101002.75;5002310;28;20029;-73
2022/07/10 10:39:12;;;;;;;12.68;11.88;;;;;;;18.49;46.50;101006.91;5020975;28;20037;-73
2022/07/10 10:41:45;;;;;;;13.88;12.90;;;;;;;18.72;46.68;100991.00;5018851;28;20080;-73
2022/07/10 10:44:13;;;;;;;13.27;12.48;;;;;;;19.11;45.11;101004.00;5020959;28;20099;-74
2022/07/10 10:46:50;;;;;;;14.35;13.55;;;;;;;19.31;44.51;100975.66;5021294;28;20033;-74
2022/07/10 10:49:17;;;;;;;12.02;10.88;;;;;;;19.28;44.93;100984.69;5019859;28;20592;-74
2022/07/10 10:52:04;;;;;;;14.07;12.90;;;;;;;19.24;44.43;100981.25;5018874;28;20049;-74
2022/07/10 10:54:50;;;;;;;11.65;11.02;;;;;;;19.07;45.16;100980.94;5020342;28;20463;-74
2022/07/10 10:57:17;;;;;;;10.98;10.38;;;;;;;18.88;45.80;100986.06;5019766;28;20041;-74
2022/07/10 10:59:54;;;;;;;13.27;12.45;;;;;;;18.96;45.99;100988.47;5020609;28;20049;-74
2022/07/10 11:02:26;;;;;;;18.48;17.55;;;;;;;18.69;46.81;100991.09;5016411;28;20124;-73
2022/07/10 11:05:18;;;;;;;11.20;10.35;;;;;;;18.19;46.89;101001.59;5020855;28;20120;-74
2022/07/10 11:07:55;;;;;;;13.57;12.80;;;;;;;17.92;47.61;100998.81;5021587;28;20038;-73
2022/07/10 11:10:32;;;;;;;17.20;16.25;;;;;;;17.70;49.03;101006.50;5018085;28;20053;-74
2022/07/10 11:13:17;;;;;;;18.92;17.92;;;;;;;17.64;49.42;101014.69;5023018;28;20444;-73
2022/07/10 11:15:52;;;;;;;14.52;13.52;;;;;;;17.64;49.76;101012.03;5025195;28;20526;-74
2022/07/10 11:18:28;;;;;;;14.65;13.55;;;;;;;17.86;49.70;101004.31;5026830;28;20048;-73
2022/07/10 11:20:54;;;;;;;13.90;13.18;;;;;;;18.27;48.94;101012.03;5027425;28;20511;-73